カンクン の空港の天気 - METARとTAF

カンクン国際空港 ( MMUN / CUN ) - メキシコ キンタナ・ロー州カンクン
飛行場実況気象(Metar)
観測時間06/17 13:40 CDT (06/17 18:40 UTC)
風向・風速東南東 8m/s
視程10km以上
天気現象
全天の4割程度の雲 雲底高度 460m
気温31℃
湿度66%
気圧1014hPa
METARMMUN 171840Z 12016KT 7SM SCT015 31/24 A2995 RMK 8/100 MDT CU CI
過去の天気等 Google飛行場航空写真 Wunderground天気予報

過去48時間のMETAR

飛行場予報(TAF)
発表時間: 6/17 11:32 CDT (6/17 16:32 UTC)
予報対象時間: 17日13時 CDT ~ 18日19時 CDT
風向・風速南東 5m/s
視程10km以上
全天の8割程度の雲 雲底高度 460m
全天の8割程度の雲 雲底高度 2440m
17日15時 CDT ~ 17日16時 CDT に徐々に
風向・風速南東 8m/s
17日21時 CDT から
風向・風速南東 3m/s
視程10km以上
全天の4割程度の雲 雲底高度 460m
全天の4割程度の雲 雲底高度 2440m
18日5時 CDT から
風向・風速南東 5m/s
視程10km以上
天気現象煙霧
全天の8割程度の雲 雲底高度 460m
全天の8割程度の雲 雲底高度 2440m
18日14時 CDT ~ 18日15時 CDT に徐々に
風向・風速南東 8m/s
TAF MMUN 171632Z 1718/1824 14010KT P6SM BKN015 BKN080 TX32/1721Z TN26/1812Z
BECMG 1720/1721 14015KT
FM180200 14006KT P6SM SCT015 SCT080
FM181000 14010KT 6SM HZ BKN015 BKN080
BECMG 1819/1820 14015KT